createdAt,value
2023-05-08T00:04:11.897Z,102064.84
2023-05-08T00:09:16.503Z,102053.00
2023-05-08T00:14:19.695Z,102051.88
2023-05-08T00:19:22.680Z,102056.00
2023-05-08T00:24:27.018Z,102046.88
2023-05-08T00:29:30.021Z,102055.84
2023-05-08T00:34:33.245Z,102054.72
2023-05-08T00:39:37.595Z,102057.22
2023-05-08T00:44:41.330Z,102045.09
2023-05-08T00:49:44.915Z,102053.69
2023-05-08T00:54:50.535Z,102052.66
2023-05-08T00:59:54.120Z,102051.75
2023-05-08T01:04:58.046Z,102043.44
2023-05-08T01:10:02.972Z,102045.63
2023-05-08T01:15:17.010Z,102034.69
2023-05-08T01:20:33.595Z,102023.31
2023-05-08T01:25:58.390Z,102042.81
2023-05-08T01:31:09.342Z,102046.72
2023-05-08T01:36:21.806Z,102048.28
2023-05-08T01:41:29.007Z,102054.28
2023-05-08T01:46:34.139Z,102057.66
2023-05-08T01:51:42.764Z,102072.34
2023-05-08T01:56:49.016Z,102074.81
2023-05-08T02:01:56.921Z,102070.97
2023-05-08T02:07:02.180Z,102076.03
2023-05-08T02:12:08.299Z,102075.66
2023-05-08T02:17:13.824Z,102087.84
2023-05-08T02:22:19.420Z,102067.91
2023-05-08T02:27:24.141Z,102057.75
2023-05-08T02:32:29.295Z,102083.50
2023-05-08T02:37:35.265Z,102083.38
2023-05-08T02:42:38.416Z,102092.91
2023-05-08T02:47:48.805Z,102091.81
2023-05-08T02:52:56.837Z,102085.16
2023-05-08T02:58:09.193Z,102091.13
2023-05-08T03:03:19.612Z,102085.56
2023-05-08T03:08:28.980Z,102074.31
2023-05-08T03:13:35.932Z,102075.81
2023-05-08T03:18:48.141Z,102063.47
2023-05-08T03:23:56.223Z,102070.00
2023-05-08T03:29:00.903Z,102074.31
2023-05-08T03:34:09.622Z,102064.56
2023-05-08T03:39:14.763Z,102068.13
2023-05-08T03:44:19.052Z,102067.34
2023-05-08T03:49:25.240Z,102047.13
2023-05-08T03:54:30.381Z,102050.22
2023-05-08T03:59:44.038Z,102048.25
2023-05-08T04:04:51.284Z,102048.38
2023-05-08T04:10:04.847Z,102055.22
2023-05-08T04:15:15.518Z,102065.63
2023-05-08T04:20:23.397Z,102072.31
2023-05-08T04:25:29.913Z,102061.88
2023-05-08T04:30:33.448Z,102080.94
2023-05-08T04:35:37.078Z,102069.38
2023-05-08T04:40:41.763Z,102081.16
2023-05-08T04:45:47.280Z,102084.91
2023-05-08T04:50:54.016Z,102090.22
2023-05-08T04:55:59.406Z,102088.63
2023-05-08T05:01:03.841Z,102094.28
2023-05-08T05:06:08.064Z,102100.41
2023-05-08T05:11:12.582Z,102115.66
2023-05-08T05:16:15.733Z,102113.75
2023-05-08T05:21:18.957Z,102119.59
2023-05-08T05:26:23.915Z,102124.59
2023-05-08T05:31:27.255Z,102130.28
2023-05-08T05:36:32.659Z,102126.19
2023-05-08T05:41:37.357Z,102135.44
2023-05-08T05:46:42.780Z,102129.94
2023-05-08T05:51:49.608Z,102138.16
2023-05-08T05:56:55.018Z,102131.50
2023-05-08T06:01:58.155Z,102135.84
2023-05-08T06:07:01.172Z,102141.09
2023-05-08T06:12:06.650Z,102153.94
2023-05-08T06:17:10.008Z,102150.34
2023-05-08T06:22:13.139Z,102148.34
2023-05-08T06:27:17.683Z,102158.31
2023-05-08T06:32:21.276Z,102159.91
2023-05-08T06:37:24.472Z,102158.25
2023-05-08T06:42:28.887Z,102164.84
2023-05-08T06:47:31.994Z,102161.81
2023-05-08T06:52:35.011Z,102153.22
2023-05-08T06:57:39.349Z,102155.72
2023-05-08T07:02:42.359Z,102145.66
2023-05-08T07:07:45.576Z,102143.31
2023-05-08T07:12:52.864Z,102152.09
2023-05-08T07:17:56.008Z,102159.28
2023-05-08T07:22:59.100Z,102156.47
2023-05-08T07:28:03.843Z,102153.47
2023-05-08T07:33:06.919Z,102146.22
2023-05-08T07:38:11.206Z,102147.84
2023-05-08T07:43:15.558Z,102136.38
2023-05-08T07:48:18.650Z,102145.50
2023-05-08T07:53:21.878Z,102151.34
2023-05-08T07:58:27.052Z,102121.66
2023-05-08T08:03:30.563Z,102136.81
2023-05-08T08:08:36.769Z,102120.81
2023-05-08T08:13:41.085Z,102126.19
2023-05-08T08:18:44.058Z,102132.44
2023-05-08T08:23:47.219Z,102138.63
2023-05-08T08:28:51.874Z,102151.75
2023-05-08T08:33:55.373Z,102143.09
2023-05-08T08:38:58.468Z,102149.50
2023-05-08T08:44:02.935Z,102150.53
2023-05-08T08:49:08.977Z,102141.50
2023-05-08T08:54:17.505Z,102138.03
2023-05-08T08:59:24.815Z,102134.56
2023-05-08T09:04:29.698Z,102131.97
2023-05-08T09:09:36.106Z,102147.41
2023-05-08T09:14:40.492Z,102142.09
2023-05-08T09:19:44.932Z,102141.00
2023-05-08T09:24:59.435Z,102147.38
2023-05-08T09:30:06.136Z,102144.72
2023-05-08T09:35:11.352Z,102142.97
2023-05-08T09:40:18.916Z,102133.06
2023-05-08T09:45:30.140Z,102140.22
2023-05-08T09:50:33.628Z,102140.72
2023-05-08T09:55:48.332Z,102144.44
2023-05-08T10:00:52.738Z,102149.13
2023-05-08T10:05:55.941Z,102150.03
2023-05-08T10:11:14.947Z,102143.88
2023-05-08T10:16:20.173Z,102135.94
2023-05-08T10:21:24.795Z,102139.47
2023-05-08T10:26:32.611Z,102141.22
2023-05-08T10:31:42.244Z,102141.28
2023-05-08T10:36:47.401Z,102134.16
2023-05-08T10:41:51.518Z,102131.44
2023-05-08T10:47:01.588Z,102133.22
2023-05-08T10:52:17.578Z,102132.34
2023-05-08T10:57:21.007Z,102131.44
2023-05-08T11:02:30.390Z,102134.00
2023-05-08T11:07:54.566Z,102129.44
2023-05-08T11:12:59.094Z,102125.66
2023-05-08T11:18:05.377Z,102114.63
2023-05-08T11:23:23.888Z,102117.41
2023-05-08T11:28:26.926Z,102111.47
2023-05-08T11:33:38.047Z,102100.72
2023-05-08T11:38:43.614Z,102109.56
2023-05-08T11:44:16.688Z,102103.28
2023-05-08T11:49:25.973Z,102097.09
2023-05-08T11:54:32.014Z,102095.25
2023-05-08T11:59:37.214Z,102088.69
2023-05-08T12:04:48.516Z,102087.13
2023-05-08T12:09:52.471Z,102091.53
2023-05-08T12:14:55.839Z,102082.75
2023-05-08T12:20:11.255Z,102085.50
2023-05-08T12:25:15.426Z,102072.59
2023-05-08T12:30:19.482Z,102068.72
2023-05-08T12:35:24.342Z,102060.91
2023-05-08T12:40:28.960Z,102066.44
2023-05-08T12:45:36.906Z,102076.44
2023-05-08T12:50:42.791Z,102059.44
2023-05-08T12:55:53.080Z,102062.06
2023-05-08T13:01:07.511Z,102053.03
2023-05-08T13:06:22.677Z,102038.00
2023-05-08T13:11:34.326Z,102040.75
2023-05-08T13:16:47.848Z,102041.53
2023-05-08T13:21:52.928Z,102045.97
2023-05-08T13:26:56.155Z,102016.53
2023-05-08T13:31:59.447Z,102037.03
2023-05-08T13:37:03.940Z,102031.81
2023-05-08T13:42:07.110Z,102038.03
2023-05-08T13:47:11.107Z,102027.66
2023-05-08T13:52:15.585Z,102028.59
2023-05-08T13:57:18.912Z,102028.69
2023-05-08T14:02:22.073Z,102032.56
2023-05-08T14:07:28.219Z,102028.19
2023-05-08T14:12:33.399Z,102014.78
2023-05-08T14:17:36.733Z,102019.34
2023-05-08T14:22:41.567Z,102017.66
2023-05-08T14:27:44.626Z,102016.69
2023-05-08T14:32:47.737Z,102022.03
2023-05-08T14:37:53.310Z,102011.41
2023-05-08T14:42:56.295Z,102005.97
2023-05-08T14:47:59.387Z,102002.31
2023-05-08T14:53:03.984Z,102013.19
2023-05-08T14:58:09.504Z,102014.88
2023-05-08T15:03:15.956Z,102008.50
2023-05-08T15:08:20.669Z,101997.94
2023-05-08T15:13:23.677Z,102019.31
2023-05-08T15:18:28.535Z,102010.47
2023-05-08T15:23:32.953Z,102012.13
2023-05-08T15:28:36.562Z,101996.31
2023-05-08T15:33:44.571Z,102000.78
2023-05-08T15:38:53.962Z,102004.41
2023-05-08T15:43:57.177Z,101993.66
2023-05-08T15:49:02.573Z,101994.53
2023-05-08T15:54:07.730Z,102002.66
2023-05-08T15:59:10.938Z,102011.63
2023-05-08T16:04:14.498Z,102025.91
2023-05-08T16:09:19.073Z,102028.59
2023-05-08T16:14:22.186Z,102015.16
2023-05-08T16:19:25.229Z,102008.88
2023-05-08T16:24:30.019Z,102006.25
2023-05-08T16:29:33.428Z,102011.63
2023-05-08T16:34:36.789Z,101999.00
2023-05-08T16:39:41.287Z,101994.47
2023-05-08T16:44:44.289Z,101981.72
2023-05-08T16:49:47.486Z,101979.94
2023-05-08T16:54:52.126Z,101972.66
2023-05-08T16:59:55.255Z,101992.94
2023-05-08T17:04:58.594Z,101993.41
2023-05-08T17:10:03.212Z,101987.59
2023-05-08T17:15:07.537Z,101986.69
2023-05-08T17:20:13.262Z,101976.22
2023-05-08T17:25:17.997Z,101982.44
2023-05-08T17:30:20.962Z,101986.56
2023-05-08T17:35:24.301Z,101985.41
2023-05-08T17:40:28.955Z,101969.16
2023-05-08T17:45:33.527Z,101969.75
2023-05-08T17:50:39.541Z,101972.44
2023-05-08T17:55:44.497Z,101976.63
2023-05-08T18:00:47.617Z,101954.97
2023-05-08T18:05:50.936Z,101949.59
2023-05-08T18:10:56.686Z,101951.31
2023-05-08T18:16:01.093Z,101956.50
2023-05-08T18:21:04.402Z,101966.31
2023-05-08T18:26:08.941Z,101974.19
2023-05-08T18:31:12.231Z,101975.72
2023-05-08T18:36:15.392Z,101974.00
2023-05-08T18:41:19.900Z,101966.63
2023-05-08T18:46:23.059Z,101962.91
2023-05-08T18:51:26.093Z,101954.69
2023-05-08T18:56:30.740Z,101960.78
2023-05-08T19:01:35.696Z,101970.38
2023-05-08T19:06:38.953Z,101978.03
2023-05-08T19:11:44.017Z,101961.44
2023-05-08T19:16:51.667Z,101972.78
2023-05-08T19:21:54.773Z,101969.00
2023-05-08T19:26:59.425Z,101968.78
2023-05-08T19:32:04.466Z,101974.69
2023-05-08T19:37:07.569Z,101989.59
2023-05-08T19:42:14.235Z,101999.44
2023-05-08T19:47:17.652Z,101995.97
2023-05-08T19:52:20.937Z,101994.81
2023-05-08T19:57:25.203Z,101997.03
2023-05-08T20:02:28.336Z,102006.09
2023-05-08T20:07:31.405Z,102006.38
2023-05-08T20:12:38.064Z,101997.53
2023-05-08T20:17:41.153Z,101995.81
2023-05-08T20:22:44.160Z,101988.56
2023-05-08T20:27:48.551Z,101986.69
2023-05-08T20:32:51.699Z,101984.75
2023-05-08T20:37:54.753Z,101975.81
2023-05-08T20:42:59.410Z,101984.66
2023-05-08T20:48:06.366Z,101962.06
2023-05-08T20:53:17.114Z,101971.72
2023-05-08T20:58:24.549Z,101976.19
2023-05-08T21:03:27.944Z,101917.03
2023-05-08T21:08:32.292Z,101967.31
2023-05-08T21:13:39.948Z,101961.00
2023-05-08T21:18:43.032Z,101960.00
2023-05-08T21:23:46.209Z,101957.91
2023-05-08T21:28:52.394Z,101957.03
2023-05-08T21:33:55.570Z,101958.09
2023-05-08T21:38:58.694Z,101946.63
2023-05-08T21:44:05.789Z,101928.78
2023-05-08T21:49:09.192Z,101919.63
2023-05-08T21:54:12.528Z,101916.88
2023-05-08T21:59:18.588Z,101915.84
2023-05-08T22:04:21.749Z,101899.69
2023-05-08T22:09:25.071Z,101898.53
2023-05-08T22:14:30.895Z,101872.53
2023-05-08T22:19:35.315Z,101884.94
2023-05-08T22:24:38.749Z,101884.78
2023-05-08T22:29:43.236Z,101886.50
2023-05-08T22:34:49.903Z,101876.63
2023-05-08T22:39:53.183Z,101862.38
2023-05-08T22:44:58.003Z,101863.16
2023-05-08T22:50:01.148Z,101848.84
2023-05-08T22:55:06.690Z,101828.31
2023-05-08T23:00:12.774Z,101822.63
2023-05-08T23:05:16.027Z,101819.03
2023-05-08T23:10:19.409Z,101814.44
2023-05-08T23:15:23.960Z,101810.81
2023-05-08T23:20:27.222Z,101803.69
2023-05-08T23:25:30.273Z,101796.53
2023-05-08T23:30:34.641Z,101794.75
2023-05-08T23:35:37.738Z,101794.72
2023-05-08T23:40:40.708Z,101791.97
2023-05-08T23:45:45.168Z,101787.56
2023-05-08T23:50:50.482Z,101790.16
2023-05-08T23:55:53.519Z,101788.31
